sensor_id;sensor_type;location;lat;lon;timestamp;P1;durP1;ratioP1;P2;durP2;ratioP2
16642;SDS011;8435;52.184;5.406;2023-07-22T00:01:54;7.63;;;6.83;;
16642;SDS011;8435;52.184;5.406;2023-07-22T00:04:21;8.83;;;7.13;;
16642;SDS011;8435;52.184;5.406;2023-07-22T00:06:48;8.37;;;7.17;;
16642;SDS011;8435;52.184;5.406;2023-07-22T00:09:22;8.83;;;7.57;;
16642;SDS011;8435;52.184;5.406;2023-07-22T00:11:49;9.03;;;7.40;;
16642;SDS011;8435;52.184;5.406;2023-07-22T00:14:25;9.57;;;7.83;;
16642;SDS011;8435;52.184;5.406;2023-07-22T00:16:53;9.07;;;7.50;;
16642;SDS011;8435;52.184;5.406;2023-07-22T00:19:23;11.93;;;7.93;;
16642;SDS011;8435;52.184;5.406;2023-07-22T00:21:50;10.57;;;8.40;;
16642;SDS011;8435;52.184;5.406;2023-07-22T00:24:17;9.27;;;8.23;;
16642;SDS011;8435;52.184;5.406;2023-07-22T00:26:44;9.90;;;8.60;;
16642;SDS011;8435;52.184;5.406;2023-07-22T00:29:11;9.17;;;7.73;;
16642;SDS011;8435;52.184;5.406;2023-07-22T00:31:37;11.20;;;8.77;;
16642;SDS011;8435;52.184;5.406;2023-07-22T00:34:08;9.67;;;8.33;;
16642;SDS011;8435;52.184;5.406;2023-07-22T00:36:35;10.87;;;8.90;;
16642;SDS011;8435;52.184;5.406;2023-07-22T00:39:02;10.20;;;8.63;;
16642;SDS011;8435;52.184;5.406;2023-07-22T00:41:30;10.50;;;8.43;;
16642;SDS011;8435;52.184;5.406;2023-07-22T00:43:57;11.13;;;9.67;;
16642;SDS011;8435;52.184;5.406;2023-07-22T00:46:24;11.07;;;8.63;;
16642;SDS011;8435;52.184;5.406;2023-07-22T00:48:50;10.23;;;8.80;;
16642;SDS011;8435;52.184;5.406;2023-07-22T00:51:20;10.63;;;9.17;;
16642;SDS011;8435;52.184;5.406;2023-07-22T00:53:48;11.80;;;10.17;;
16642;SDS011;8435;52.184;5.406;2023-07-22T00:56:23;14.13;;;9.23;;
16642;SDS011;8435;52.184;5.406;2023-07-22T00:58:50;12.27;;;9.60;;
16642;SDS011;8435;52.184;5.406;2023-07-22T01:01:17;11.70;;;9.03;;
16642;SDS011;8435;52.184;5.406;2023-07-22T01:03:44;10.77;;;9.27;;
16642;SDS011;8435;52.184;5.406;2023-07-22T01:06:11;11.73;;;9.97;;
16642;SDS011;8435;52.184;5.406;2023-07-22T01:08:43;12.13;;;9.40;;
16642;SDS011;8435;52.184;5.406;2023-07-22T01:11:11;12.53;;;10.50;;
16642;SDS011;8435;52.184;5.406;2023-07-22T01:13:40;13.93;;;10.67;;
16642;SDS011;8435;52.184;5.406;2023-07-22T01:16:08;13.87;;;9.30;;
16642;SDS011;8435;52.184;5.406;2023-07-22T01:18:35;12.20;;;9.80;;
16642;SDS011;8435;52.184;5.406;2023-07-22T01:21:03;11.50;;;10.03;;
16642;SDS011;8435;52.184;5.406;2023-07-22T01:23:33;11.53;;;9.60;;
16642;SDS011;8435;52.184;5.406;2023-07-22T01:26:01;13.07;;;10.07;;
16642;SDS011;8435;52.184;5.406;2023-07-22T01:28:28;12.20;;;9.80;;
16642;SDS011;8435;52.184;5.406;2023-07-22T01:30:55;11.47;;;9.87;;
16642;SDS011;8435;52.184;5.406;2023-07-22T01:33:23;11.40;;;9.37;;
16642;SDS011;8435;52.184;5.406;2023-07-22T01:35:51;12.60;;;9.27;;
16642;SDS011;8435;52.184;5.406;2023-07-22T01:38:20;12.00;;;9.80;;
16642;SDS011;8435;52.184;5.406;2023-07-22T01:40:48;11.33;;;8.77;;
16642;SDS011;8435;52.184;5.406;2023-07-22T01:43:15;11.37;;;9.67;;
16642;SDS011;8435;52.184;5.406;2023-07-22T01:45:46;10.03;;;8.23;;
16642;SDS011;8435;52.184;5.406;2023-07-22T01:48:15;9.43;;;8.43;;
16642;SDS011;8435;52.184;5.406;2023-07-22T01:50:42;10.87;;;9.33;;
16642;SDS011;8435;52.184;5.406;2023-07-22T01:53:09;9.70;;;8.70;;
16642;SDS011;8435;52.184;5.406;2023-07-22T01:55:36;10.63;;;9.33;;
16642;SDS011;8435;52.184;5.406;2023-07-22T01:58:04;11.90;;;9.50;;
16642;SDS011;8435;52.184;5.406;2023-07-22T02:00:31;10.40;;;9.03;;
16642;SDS011;8435;52.184;5.406;2023-07-22T02:02:58;11.53;;;9.33;;
16642;SDS011;8435;52.184;5.406;2023-07-22T02:05:25;10.40;;;9.07;;
16642;SDS011;8435;52.184;5.406;2023-07-22T02:07:53;10.93;;;8.47;;
16642;SDS011;8435;52.184;5.406;2023-07-22T02:10:20;11.67;;;9.67;;
16642;SDS011;8435;52.184;5.406;2023-07-22T02:12:47;12.03;;;9.43;;
16642;SDS011;8435;52.184;5.406;2023-07-22T02:15:16;11.00;;;8.47;;
16642;SDS011;8435;52.184;5.406;2023-07-22T02:17:43;9.50;;;8.50;;
16642;SDS011;8435;52.184;5.406;2023-07-22T02:20:10;11.60;;;8.87;;
16642;SDS011;8435;52.184;5.406;2023-07-22T02:22:37;11.07;;;8.73;;
16642;SDS011;8435;52.184;5.406;2023-07-22T02:25:05;10.47;;;9.37;;
16642;SDS011;8435;52.184;5.406;2023-07-22T02:27:35;12.30;;;9.20;;
16642;SDS011;8435;52.184;5.406;2023-07-22T02:30:05;11.23;;;8.83;;
16642;SDS011;8435;52.184;5.406;2023-07-22T02:32:36;10.87;;;8.97;;
16642;SDS011;8435;52.184;5.406;2023-07-22T02:35:04;10.47;;;9.23;;
16642;SDS011;8435;52.184;5.406;2023-07-22T02:37:32;12.87;;;10.30;;
16642;SDS011;8435;52.184;5.406;2023-07-22T02:39:58;11.67;;;10.13;;
16642;SDS011;8435;52.184;5.406;2023-07-22T02:42:25;14.37;;;11.50;;
16642;SDS011;8435;52.184;5.406;2023-07-22T02:44:52;13.53;;;11.47;;
16642;SDS011;8435;52.184;5.406;2023-07-22T02:47:19;14.20;;;10.83;;
16642;SDS011;8435;52.184;5.406;2023-07-22T02:49:47;14.03;;;11.30;;
16642;SDS011;8435;52.184;5.406;2023-07-22T02:52:14;13.23;;;11.13;;
16642;SDS011;8435;52.184;5.406;2023-07-22T02:54:41;13.37;;;11.37;;
16642;SDS011;8435;52.184;5.406;2023-07-22T02:57:08;12.17;;;10.23;;
16642;SDS011;8435;52.184;5.406;2023-07-22T02:59:35;13.10;;;11.00;;
16642;SDS011;8435;52.184;5.406;2023-07-22T03:02:02;12.33;;;10.97;;
16642;SDS011;8435;52.184;5.406;2023-07-22T03:04:29;12.77;;;11.30;;
16642;SDS011;8435;52.184;5.406;2023-07-22T03:06:57;13.27;;;10.43;;
16642;SDS011;8435;52.184;5.406;2023-07-22T03:09:25;13.33;;;11.47;;
16642;SDS011;8435;52.184;5.406;2023-07-22T03:11:52;14.10;;;11.17;;
16642;SDS011;8435;52.184;5.406;2023-07-22T03:14:18;12.40;;;10.43;;
16642;SDS011;8435;52.184;5.406;2023-07-22T03:16:47;13.73;;;11.40;;
16642;SDS011;8435;52.184;5.406;2023-07-22T03:19:14;14.33;;;11.10;;
16642;SDS011;8435;52.184;5.406;2023-07-22T03:21:41;13.83;;;11.43;;
16642;SDS011;8435;52.184;5.406;2023-07-22T03:24:09;13.00;;;11.00;;
16642;SDS011;8435;52.184;5.406;2023-07-22T03:26:36;12.50;;;10.50;;
16642;SDS011;8435;52.184;5.406;2023-07-22T03:29:03;12.93;;;10.43;;
16642;SDS011;8435;52.184;5.406;2023-07-22T03:31:31;12.60;;;11.13;;
16642;SDS011;8435;52.184;5.406;2023-07-22T03:33:58;14.20;;;11.23;;
16642;SDS011;8435;52.184;5.406;2023-07-22T03:36:25;14.43;;;12.50;;
16642;SDS011;8435;52.184;5.406;2023-07-22T03:38:53;12.27;;;10.67;;
16642;SDS011;8435;52.184;5.406;2023-07-22T03:41:21;13.00;;;10.73;;
16642;SDS011;8435;52.184;5.406;2023-07-22T03:43:48;13.27;;;10.83;;
16642;SDS011;8435;52.184;5.406;2023-07-22T03:46:15;12.90;;;10.53;;
16642;SDS011;8435;52.184;5.406;2023-07-22T03:48:42;14.10;;;11.40;;
16642;SDS011;8435;52.184;5.406;2023-07-22T03:51:09;14.70;;;11.07;;
16642;SDS011;8435;52.184;5.406;2023-07-22T03:53:36;12.17;;;10.70;;
16642;SDS011;8435;52.184;5.406;2023-07-22T03:56:03;14.07;;;11.57;;
16642;SDS011;8435;52.184;5.406;2023-07-22T03:58:31;13.50;;;10.53;;
16642;SDS011;8435;52.184;5.406;2023-07-22T04:00:58;10.87;;;9.77;;
16642;SDS011;8435;52.184;5.406;2023-07-22T04:03:25;11.97;;;10.37;;
16642;SDS011;8435;52.184;5.406;2023-07-22T04:05:55;12.07;;;9.90;;
16642;SDS011;8435;52.184;5.406;2023-07-22T04:08:24;11.57;;;9.50;;
16642;SDS011;8435;52.184;5.406;2023-07-22T04:10:51;12.10;;;10.00;;
16642;SDS011;8435;52.184;5.406;2023-07-22T04:13:18;13.10;;;10.00;;
16642;SDS011;8435;52.184;5.406;2023-07-22T04:15:49;11.73;;;9.33;;
16642;SDS011;8435;52.184;5.406;2023-07-22T04:18:17;10.80;;;9.67;;
16642;SDS011;8435;52.184;5.406;2023-07-22T04:20:45;10.60;;;8.37;;
16642;SDS011;8435;52.184;5.406;2023-07-22T04:23:13;9.53;;;8.60;;
16642;SDS011;8435;52.184;5.406;2023-07-22T04:25:40;10.30;;;9.07;;
16642;SDS011;8435;52.184;5.406;2023-07-22T04:28:07;10.50;;;8.83;;
16642;SDS011;8435;52.184;5.406;2023-07-22T04:30:34;13.60;;;8.90;;
16642;SDS011;8435;52.184;5.406;2023-07-22T04:33:03;10.43;;;9.07;;
16642;SDS011;8435;52.184;5.406;2023-07-22T04:35:30;9.77;;;8.37;;
16642;SDS011;8435;52.184;5.406;2023-07-22T04:37:58;13.13;;;8.73;;
16642;SDS011;8435;52.184;5.406;2023-07-22T04:40:25;10.37;;;8.70;;
16642;SDS011;8435;52.184;5.406;2023-07-22T04:42:52;10.10;;;8.57;;
16642;SDS011;8435;52.184;5.406;2023-07-22T04:45:19;10.33;;;8.27;;
16642;SDS011;8435;52.184;5.406;2023-07-22T04:47:45;10.47;;;9.37;;
16642;SDS011;8435;52.184;5.406;2023-07-22T04:50:15;11.53;;;9.20;;
16642;SDS011;8435;52.184;5.406;2023-07-22T04:52:42;13.13;;;9.60;;
16642;SDS011;8435;52.184;5.406;2023-07-22T04:55:11;10.20;;;8.77;;
16642;SDS011;8435;52.184;5.406;2023-07-22T04:57:38;11.23;;;9.23;;
16642;SDS011;8435;52.184;5.406;2023-07-22T05:00:06;12.33;;;9.20;;
16642;SDS011;8435;52.184;5.406;2023-07-22T05:02:37;13.23;;;10.50;;
16642;SDS011;8435;52.184;5.406;2023-07-22T05:05:04;13.30;;;10.47;;
16642;SDS011;8435;52.184;5.406;2023-07-22T05:07:33;11.80;;;9.50;;
16642;SDS011;8435;52.184;5.406;2023-07-22T05:09:59;15.33;;;10.33;;
16642;SDS011;8435;52.184;5.406;2023-07-22T05:12:26;12.13;;;10.00;;
16642;SDS011;8435;52.184;5.406;2023-07-22T05:14:53;13.57;;;10.80;;
16642;SDS011;8435;52.184;5.406;2023-07-22T05:17:20;12.87;;;11.03;;
16642;SDS011;8435;52.184;5.406;2023-07-22T05:19:53;13.57;;;10.67;;
16642;SDS011;8435;52.184;5.406;2023-07-22T05:22:20;13.93;;;11.23;;
16642;SDS011;8435;52.184;5.406;2023-07-22T05:24:52;12.63;;;10.77;;
16642;SDS011;8435;52.184;5.406;2023-07-22T05:27:19;14.17;;;11.07;;
16642;SDS011;8435;52.184;5.406;2023-07-22T05:29:49;14.30;;;11.20;;
16642;SDS011;8435;52.184;5.406;2023-07-22T05:32:16;15.43;;;11.50;;
16642;SDS011;8435;52.184;5.406;2023-07-22T05:34:43;15.13;;;12.23;;
16642;SDS011;8435;52.184;5.406;2023-07-22T05:37:10;13.40;;;11.13;;
16642;SDS011;8435;52.184;5.406;2023-07-22T05:39:36;13.10;;;10.70;;
16642;SDS011;8435;52.184;5.406;2023-07-22T05:42:05;15.53;;;11.77;;
16642;SDS011;8435;52.184;5.406;2023-07-22T05:44:32;14.73;;;12.57;;
16642;SDS011;8435;52.184;5.406;2023-07-22T05:47:00;19.53;;;12.87;;
16642;SDS011;8435;52.184;5.406;2023-07-22T05:49:27;13.63;;;11.37;;
16642;SDS011;8435;52.184;5.406;2023-07-22T05:51:54;16.03;;;12.43;;
16642;SDS011;8435;52.184;5.406;2023-07-22T05:54:21;17.83;;;11.97;;
16642;SDS011;8435;52.184;5.406;2023-07-22T05:56:48;15.03;;;12.93;;
16642;SDS011;8435;52.184;5.406;2023-07-22T05:59:16;13.50;;;12.07;;
16642;SDS011;8435;52.184;5.406;2023-07-22T06:01:50;17.10;;;12.90;;
16642;SDS011;8435;52.184;5.406;2023-07-22T06:04:17;16.17;;;12.77;;
16642;SDS011;8435;52.184;5.406;2023-07-22T06:06:44;15.90;;;12.33;;
16642;SDS011;8435;52.184;5.406;2023-07-22T06:09:11;18.43;;;12.50;;
16642;SDS011;8435;52.184;5.406;2023-07-22T06:11:41;16.67;;;13.70;;
16642;SDS011;8435;52.184;5.406;2023-07-22T06:14:08;16.70;;;13.47;;
16642;SDS011;8435;52.184;5.406;2023-07-22T06:16:36;16.33;;;13.07;;
16642;SDS011;8435;52.184;5.406;2023-07-22T06:19:03;15.03;;;12.40;;
16642;SDS011;8435;52.184;5.406;2023-07-22T06:21:30;18.17;;;13.60;;
16642;SDS011;8435;52.184;5.406;2023-07-22T06:23:57;15.60;;;12.53;;
16642;SDS011;8435;52.184;5.406;2023-07-22T06:26:27;15.35;;;12.68;;
16642;SDS011;8435;52.184;5.406;2023-07-22T06:28:54;17.03;;;13.40;;
16642;SDS011;8435;52.184;5.406;2023-07-22T06:31:21;15.88;;;11.85;;
16642;SDS011;8435;52.184;5.406;2023-07-22T06:33:56;16.20;;;13.30;;
16642;SDS011;8435;52.184;5.406;2023-07-22T06:36:24;17.20;;;12.75;;
16642;SDS011;8435;52.184;5.406;2023-07-22T06:38:51;16.25;;;13.18;;
16642;SDS011;8435;52.184;5.406;2023-07-22T06:41:18;17.40;;;13.23;;
16642;SDS011;8435;52.184;5.406;2023-07-22T06:43:45;16.63;;;12.68;;
16642;SDS011;8435;52.184;5.406;2023-07-22T06:46:12;14.77;;;11.68;;
16642;SDS011;8435;52.184;5.406;2023-07-22T06:48:39;16.90;;;11.80;;
16642;SDS011;8435;52.184;5.406;2023-07-22T06:51:07;14.48;;;12.38;;
16642;SDS011;8435;52.184;5.406;2023-07-22T06:53:34;12.98;;;10.88;;
16642;SDS011;8435;52.184;5.406;2023-07-22T06:56:01;14.98;;;11.82;;
16642;SDS011;8435;52.184;5.406;2023-07-22T06:58:28;15.82;;;11.98;;
16642;SDS011;8435;52.184;5.406;2023-07-22T07:00:55;14.27;;;11.65;;
16642;SDS011;8435;52.184;5.406;2023-07-22T07:03:22;14.75;;;12.18;;
16642;SDS011;8435;52.184;5.406;2023-07-22T07:05:53;11.82;;;10.63;;
16642;SDS011;8435;52.184;5.406;2023-07-22T07:08:21;11.77;;;10.52;;
16642;SDS011;8435;52.184;5.406;2023-07-22T07:10:51;12.82;;;10.90;;
16642;SDS011;8435;52.184;5.406;2023-07-22T07:13:18;11.85;;;10.48;;
16642;SDS011;8435;52.184;5.406;2023-07-22T07:15:46;13.63;;;10.73;;
16642;SDS011;8435;52.184;5.406;2023-07-22T07:18:14;14.13;;;10.32;;
16642;SDS011;8435;52.184;5.406;2023-07-22T07:20:42;12.93;;;11.07;;
16642;SDS011;8435;52.184;5.406;2023-07-22T07:23:09;15.13;;;10.95;;
16642;SDS011;8435;52.184;5.406;2023-07-22T07:25:37;12.60;;;10.05;;
16642;SDS011;8435;52.184;5.406;2023-07-22T07:28:04;12.25;;;10.82;;
16642;SDS011;8435;52.184;5.406;2023-07-22T07:30:31;11.32;;;9.65;;
16642;SDS011;8435;52.184;5.406;2023-07-22T07:32:58;12.10;;;10.20;;
16642;SDS011;8435;52.184;5.406;2023-07-22T07:35:25;11.90;;;10.63;;
16642;SDS011;8435;52.184;5.406;2023-07-22T07:37:52;15.02;;;12.07;;
16642;SDS011;8435;52.184;5.406;2023-07-22T07:40:18;12.45;;;11.13;;
16642;SDS011;8435;52.184;5.406;2023-07-22T07:42:47;12.77;;;10.68;;
16642;SDS011;8435;52.184;5.406;2023-07-22T07:45:14;12.85;;;10.95;;
16642;SDS011;8435;52.184;5.406;2023-07-22T07:47:41;11.05;;;9.57;;
16642;SDS011;8435;52.184;5.406;2023-07-22T07:50:08;11.77;;;10.52;;
16642;SDS011;8435;52.184;5.406;2023-07-22T07:52:35;12.48;;;9.95;;
16642;SDS011;8435;52.184;5.406;2023-07-22T07:55:03;13.95;;;10.77;;
16642;SDS011;8435;52.184;5.406;2023-07-22T07:57:31;14.50;;;10.13;;
16642;SDS011;8435;52.184;5.406;2023-07-22T07:59:59;11.30;;;9.63;;
16642;SDS011;8435;52.184;5.406;2023-07-22T08:02:26;10.50;;;9.38;;
16642;SDS011;8435;52.184;5.406;2023-07-22T08:04:53;10.52;;;9.43;;
16642;SDS011;8435;52.184;5.406;2023-07-22T08:07:20;12.43;;;9.50;;
16642;SDS011;8435;52.184;5.406;2023-07-22T08:09:48;9.93;;;8.82;;
16642;SDS011;8435;52.184;5.406;2023-07-22T08:12:15;10.98;;;9.25;;
16642;SDS011;8435;52.184;5.406;2023-07-22T08:14:42;11.93;;;8.70;;
16642;SDS011;8435;52.184;5.406;2023-07-22T08:17:10;9.68;;;8.10;;
16642;SDS011;8435;52.184;5.406;2023-07-22T08:19:37;10.10;;;8.52;;
16642;SDS011;8435;52.184;5.406;2023-07-22T08:22:04;10.32;;;8.90;;
16642;SDS011;8435;52.184;5.406;2023-07-22T08:24:32;10.10;;;8.63;;
16642;SDS011;8435;52.184;5.406;2023-07-22T08:27:02;9.20;;;8.00;;
16642;SDS011;8435;52.184;5.406;2023-07-22T08:29:30;9.93;;;8.45;;
16642;SDS011;8435;52.184;5.406;2023-07-22T08:31:56;11.90;;;9.18;;
16642;SDS011;8435;52.184;5.406;2023-07-22T08:34:25;8.43;;;7.63;;
16642;SDS011;8435;52.184;5.406;2023-07-22T08:36:52;9.27;;;8.20;;
16642;SDS011;8435;52.184;5.406;2023-07-22T08:39:19;12.43;;;8.02;;
16642;SDS011;8435;52.184;5.406;2023-07-22T08:41:47;8.48;;;7.68;;
16642;SDS011;8435;52.184;5.406;2023-07-22T08:44:16;8.60;;;7.30;;
16642;SDS011;8435;52.184;5.406;2023-07-22T08:46:46;10.25;;;8.07;;
16642;SDS011;8435;52.184;5.406;2023-07-22T08:49:15;10.65;;;7.57;;
16642;SDS011;8435;52.184;5.406;2023-07-22T08:51:43;8.38;;;7.45;;
16642;SDS011;8435;52.184;5.406;2023-07-22T08:54:11;9.02;;;8.05;;
16642;SDS011;8435;52.184;5.406;2023-07-22T08:56:39;8.63;;;6.72;;
16642;SDS011;8435;52.184;5.406;2023-07-22T08:59:07;8.02;;;7.15;;
16642;SDS011;8435;52.184;5.406;2023-07-22T09:01:35;8.00;;;6.57;;
16642;SDS011;8435;52.184;5.406;2023-07-22T09:04:04;8.57;;;6.13;;
16642;SDS011;8435;52.184;5.406;2023-07-22T09:06:32;6.80;;;6.07;;
16642;SDS011;8435;52.184;5.406;2023-07-22T09:09:01;6.60;;;6.00;;
16642;SDS011;8435;52.184;5.406;2023-07-22T09:11:32;6.15;;;5.47;;
16642;SDS011;8435;52.184;5.406;2023-07-22T09:14:00;6.40;;;5.80;;
16642;SDS011;8435;52.184;5.406;2023-07-22T09:16:28;6.35;;;5.40;;
16642;SDS011;8435;52.184;5.406;2023-07-22T09:18:57;8.05;;;5.00;;
16642;SDS011;8435;52.184;5.406;2023-07-22T09:21:24;8.40;;;5.05;;
16642;SDS011;8435;52.184;5.406;2023-07-22T09:23:53;4.88;;;4.40;;
16642;SDS011;8435;52.184;5.406;2023-07-22T09:26:21;7.07;;;5.43;;
16642;SDS011;8435;52.184;5.406;2023-07-22T09:28:49;5.78;;;5.28;;
16642;SDS011;8435;52.184;5.406;2023-07-22T09:31:20;5.40;;;4.90;;
16642;SDS011;8435;52.184;5.406;2023-07-22T09:33:52;6.25;;;5.07;;
16642;SDS011;8435;52.184;5.406;2023-07-22T09:36:20;5.22;;;4.72;;
16642;SDS011;8435;52.184;5.406;2023-07-22T09:38:57;5.25;;;4.75;;
16642;SDS011;8435;52.184;5.406;2023-07-22T09:41:30;6.63;;;4.22;;
16642;SDS011;8435;52.184;5.406;2023-07-22T09:43:57;4.63;;;4.05;;
16642;SDS011;8435;52.184;5.406;2023-07-22T09:46:30;5.25;;;4.20;;
16642;SDS011;8435;52.184;5.406;2023-07-22T09:49:02;5.53;;;4.50;;
16642;SDS011;8435;52.184;5.406;2023-07-22T09:51:32;5.68;;;4.38;;
16642;SDS011;8435;52.184;5.406;2023-07-22T09:54:01;5.80;;;4.30;;
16642;SDS011;8435;52.184;5.406;2023-07-22T09:56:30;5.22;;;4.20;;
16642;SDS011;8435;52.184;5.406;2023-07-22T09:58:58;6.57;;;4.35;;
16642;SDS011;8435;52.184;5.406;2023-07-22T10:01:28;4.35;;;3.88;;
16642;SDS011;8435;52.184;5.406;2023-07-22T10:03:55;5.00;;;4.13;;
16642;SDS011;8435;52.184;5.406;2023-07-22T10:06:23;4.38;;;4.07;;
16642;SDS011;8435;52.184;5.406;2023-07-22T10:08:52;4.35;;;3.95;;
16642;SDS011;8435;52.184;5.406;2023-07-22T10:11:21;5.00;;;3.80;;
16642;SDS011;8435;52.184;5.406;2023-07-22T10:13:52;4.82;;;3.78;;
16642;SDS011;8435;52.184;5.406;2023-07-22T10:16:22;4.70;;;4.22;;
16642;SDS011;8435;52.184;5.406;2023-07-22T10:18:50;4.15;;;3.75;;
16642;SDS011;8435;52.184;5.406;2023-07-22T10:21:17;6.35;;;4.03;;
16642;SDS011;8435;52.184;5.406;2023-07-22T10:23:44;5.28;;;4.60;;
16642;SDS011;8435;52.184;5.406;2023-07-22T10:26:14;5.72;;;4.57;;
16642;SDS011;8435;52.184;5.406;2023-07-22T10:28:43;5.88;;;4.13;;
16642;SDS011;8435;52.184;5.406;2023-07-22T10:31:13;4.82;;;4.25;;
16642;SDS011;8435;52.184;5.406;2023-07-22T10:33:44;4.25;;;3.47;;
16642;SDS011;8435;52.184;5.406;2023-07-22T10:36:13;4.25;;;3.30;;
16642;SDS011;8435;52.184;5.406;2023-07-22T10:38:42;4.50;;;3.65;;
16642;SDS011;8435;52.184;5.406;2023-07-22T10:41:11;3.85;;;3.55;;
16642;SDS011;8435;52.184;5.406;2023-07-22T10:43:38;5.40;;;3.72;;
16642;SDS011;8435;52.184;5.406;2023-07-22T10:46:07;6.22;;;3.53;;
16642;SDS011;8435;52.184;5.406;2023-07-22T10:48:38;5.05;;;3.80;;
16642;SDS011;8435;52.184;5.406;2023-07-22T10:51:07;4.25;;;3.50;;
16642;SDS011;8435;52.184;5.406;2023-07-22T10:53:38;4.38;;;4.07;;
16642;SDS011;8435;52.184;5.406;2023-07-22T10:56:13;4.15;;;3.63;;
16642;SDS011;8435;52.184;5.406;2023-07-22T10:59:00;4.30;;;3.13;;
16642;SDS011;8435;52.184;5.406;2023-07-22T11:01:32;4.30;;;3.63;;
16642;SDS011;8435;52.184;5.406;2023-07-22T11:04:09;4.05;;;3.42;;
16642;SDS011;8435;52.184;5.406;2023-07-22T11:06:38;4.25;;;3.53;;
16642;SDS011;8435;52.184;5.406;2023-07-22T11:09:06;5.10;;;3.30;;
16642;SDS011;8435;52.184;5.406;2023-07-22T11:11:34;6.05;;;3.80;;
16642;SDS011;8435;52.184;5.406;2023-07-22T11:14:14;4.93;;;3.67;;
16642;SDS011;8435;52.184;5.406;2023-07-22T11:16:42;4.40;;;3.63;;
16642;SDS011;8435;52.184;5.406;2023-07-22T11:19:13;5.18;;;3.80;;
16642;SDS011;8435;52.184;5.406;2023-07-22T11:21:41;4.57;;;4.05;;
16642;SDS011;8435;52.184;5.406;2023-07-22T11:24:10;4.30;;;3.90;;
16642;SDS011;8435;52.184;5.406;2023-07-22T11:26:38;4.28;;;3.88;;
16642;SDS011;8435;52.184;5.406;2023-07-22T11:29:08;3.17;;;2.97;;
16642;SDS011;8435;52.184;5.406;2023-07-22T11:31:36;2.50;;;2.30;;
16642;SDS011;8435;52.184;5.406;2023-07-22T11:34:07;3.00;;;2.67;;
16642;SDS011;8435;52.184;5.406;2023-07-22T11:36:36;3.95;;;3.05;;
16642;SDS011;8435;52.184;5.406;2023-07-22T11:39:03;4.22;;;3.08;;
16642;SDS011;8435;52.184;5.406;2023-07-22T11:41:30;3.38;;;2.92;;
16642;SDS011;8435;52.184;5.406;2023-07-22T11:43:58;3.50;;;3.20;;
16642;SDS011;8435;52.184;5.406;2023-07-22T11:46:27;3.65;;;3.33;;
16642;SDS011;8435;52.184;5.406;2023-07-22T11:48:54;3.53;;;3.13;;
16642;SDS011;8435;52.184;5.406;2023-07-22T11:51:22;4.93;;;3.30;;
16642;SDS011;8435;52.184;5.406;2023-07-22T11:53:52;3.35;;;3.05;;
16642;SDS011;8435;52.184;5.406;2023-07-22T11:56:23;4.10;;;2.97;;
16642;SDS011;8435;52.184;5.406;2023-07-22T11:58:52;4.72;;;3.40;;
16642;SDS011;8435;52.184;5.406;2023-07-22T12:01:20;4.50;;;2.88;;
16642;SDS011;8435;52.184;5.406;2023-07-22T12:03:55;3.72;;;3.25;;
16642;SDS011;8435;52.184;5.406;2023-07-22T12:06:24;8.35;;;4.32;;
16642;SDS011;8435;52.184;5.406;2023-07-22T12:08:53;3.63;;;3.33;;
16642;SDS011;8435;52.184;5.406;2023-07-22T12:11:22;3.88;;;3.40;;
16642;SDS011;8435;52.184;5.406;2023-07-22T12:14:03;3.88;;;3.40;;
16642;SDS011;8435;52.184;5.406;2023-07-22T12:16:33;6.05;;;3.75;;
16642;SDS011;8435;52.184;5.406;2023-07-22T12:19:01;5.47;;;3.45;;
16642;SDS011;8435;52.184;5.406;2023-07-22T12:21:28;4.10;;;3.55;;
16642;SDS011;8435;52.184;5.406;2023-07-22T12:23:56;4.78;;;3.42;;
16642;SDS011;8435;52.184;5.406;2023-07-22T12:26:23;3.75;;;3.22;;
16642;SDS011;8435;52.184;5.406;2023-07-22T12:28:50;4.38;;;3.40;;
16642;SDS011;8435;52.184;5.406;2023-07-22T12:31:17;5.57;;;3.70;;
16642;SDS011;8435;52.184;5.406;2023-07-22T12:33:44;4.32;;;3.75;;
16642;SDS011;8435;52.184;5.406;2023-07-22T12:36:11;3.75;;;3.40;;
16642;SDS011;8435;52.184;5.406;2023-07-22T12:38:38;3.90;;;3.30;;
16642;SDS011;8435;52.184;5.406;2023-07-22T12:41:06;4.32;;;3.88;;
16642;SDS011;8435;52.184;5.406;2023-07-22T12:43:33;3.88;;;3.47;;
16642;SDS011;8435;52.184;5.406;2023-07-22T12:46:00;4.97;;;3.42;;
16642;SDS011;8435;52.184;5.406;2023-07-22T12:48:26;4.28;;;3.38;;
16642;SDS011;8435;52.184;5.406;2023-07-22T12:50:53;4.00;;;3.70;;
16642;SDS011;8435;52.184;5.406;2023-07-22T12:53:21;3.88;;;3.58;;
16642;SDS011;8435;52.184;5.406;2023-07-22T12:55:47;3.88;;;3.58;;
16642;SDS011;8435;52.184;5.406;2023-07-22T12:58:16;4.47;;;3.80;;
16642;SDS011;8435;52.184;5.406;2023-07-22T13:00:42;5.35;;;4.40;;
16642;SDS011;8435;52.184;5.406;2023-07-22T13:03:09;5.55;;;4.30;;
16642;SDS011;8435;52.184;5.406;2023-07-22T13:05:36;7.32;;;4.18;;
16642;SDS011;8435;52.184;5.406;2023-07-22T13:08:03;4.88;;;4.30;;
16642;SDS011;8435;52.184;5.406;2023-07-22T13:10:30;5.03;;;4.55;;
16642;SDS011;8435;52.184;5.406;2023-07-22T13:12:59;4.60;;;4.22;;
16642;SDS011;8435;52.184;5.406;2023-07-22T13:15:32;4.75;;;4.35;;
16642;SDS011;8435;52.184;5.406;2023-07-22T13:17:59;6.28;;;5.07;;
16642;SDS011;8435;52.184;5.406;2023-07-22T13:20:27;5.10;;;4.53;;
16642;SDS011;8435;52.184;5.406;2023-07-22T13:22:55;5.32;;;4.78;;
16642;SDS011;8435;52.184;5.406;2023-07-22T13:25:22;4.22;;;3.83;;
16642;SDS011;8435;52.184;5.406;2023-07-22T13:27:49;5.50;;;4.75;;
16642;SDS011;8435;52.184;5.406;2023-07-22T13:30:16;5.32;;;4.43;;
16642;SDS011;8435;52.184;5.406;2023-07-22T13:32:44;5.22;;;4.78;;
16642;SDS011;8435;52.184;5.406;2023-07-22T13:35:11;6.63;;;4.40;;
16642;SDS011;8435;52.184;5.406;2023-07-22T13:37:38;5.43;;;3.92;;
16642;SDS011;8435;52.184;5.406;2023-07-22T13:40:05;5.43;;;4.35;;
16642;SDS011;8435;52.184;5.406;2023-07-22T13:42:35;5.43;;;4.07;;
16642;SDS011;8435;52.184;5.406;2023-07-22T13:45:03;4.22;;;3.80;;
16642;SDS011;8435;52.184;5.406;2023-07-22T13:47:33;5.78;;;3.25;;
16642;SDS011;8435;52.184;5.406;2023-07-22T13:50:01;3.35;;;3.05;;
16642;SDS011;8435;52.184;5.406;2023-07-22T13:52:29;4.18;;;3.78;;
16642;SDS011;8435;52.184;5.406;2023-07-22T13:54:55;4.75;;;3.38;;
16642;SDS011;8435;52.184;5.406;2023-07-22T13:57:22;3.28;;;2.92;;
16642;SDS011;8435;52.184;5.406;2023-07-22T13:59:49;3.58;;;2.30;;
16642;SDS011;8435;52.184;5.406;2023-07-22T14:02:16;3.03;;;2.67;;
16642;SDS011;8435;52.184;5.406;2023-07-22T14:04:43;5.45;;;3.88;;
16642;SDS011;8435;52.184;5.406;2023-07-22T14:07:11;3.70;;;2.72;;
16642;SDS011;8435;52.184;5.406;2023-07-22T14:09:38;2.45;;;2.22;;
16642;SDS011;8435;52.184;5.406;2023-07-22T14:12:05;4.05;;;2.50;;
16642;SDS011;8435;52.184;5.406;2023-07-22T14:14:32;3.85;;;2.80;;
16642;SDS011;8435;52.184;5.406;2023-07-22T14:16:59;3.13;;;2.17;;
16642;SDS011;8435;52.184;5.406;2023-07-22T14:19:26;2.25;;;2.08;;
16642;SDS011;8435;52.184;5.406;2023-07-22T14:21:54;3.13;;;2.00;;
16642;SDS011;8435;52.184;5.406;2023-07-22T14:24:22;3.17;;;2.78;;
16642;SDS011;8435;52.184;5.406;2023-07-22T14:26:49;2.45;;;2.25;;
16642;SDS011;8435;52.184;5.406;2023-07-22T14:29:16;3.42;;;2.30;;
16642;SDS011;8435;52.184;5.406;2023-07-22T14:31:43;3.80;;;2.40;;
16642;SDS011;8435;52.184;5.406;2023-07-22T14:34:10;2.58;;;2.38;;
16642;SDS011;8435;52.184;5.406;2023-07-22T14:36:36;3.15;;;2.42;;
16642;SDS011;8435;52.184;5.406;2023-07-22T14:39:03;2.22;;;2.03;;
16642;SDS011;8435;52.184;5.406;2023-07-22T14:41:32;3.25;;;2.20;;
16642;SDS011;8435;52.184;5.406;2023-07-22T14:43:58;2.03;;;1.92;;
16642;SDS011;8435;52.184;5.406;2023-07-22T14:46:25;3.78;;;2.47;;
16642;SDS011;8435;52.184;5.406;2023-07-22T14:48:52;2.53;;;2.33;;
16642;SDS011;8435;52.184;5.406;2023-07-22T14:51:19;3.30;;;2.20;;
16642;SDS011;8435;52.184;5.406;2023-07-22T14:53:46;2.28;;;2.08;;
16642;SDS011;8435;52.184;5.406;2023-07-22T14:56:13;2.63;;;2.35;;